Grand Marais, MN (55604)

10:41 AM CST on December 04, 2016 (GMT -0600)
SundewTech | | Change Station
Active Advisory: Winter Weather Advisory Active Notice: Public Information Statement

Elev 676 ft 47.75 °N, 90.34 °W | Updated 35 seconds ago

Haze
Haze
33.4 °F
Feels Like 33 °F
N
2.0
Wind Variable Wind from ESE

Today
High -- | Low -- °F
--% Chance of Precip.
Yesterday
High -- | Low -- °F
Precip. -- in
Pressure 29.90 in
Visibility 5.0 miles
Clouds Overcast 900 ft
Windchill 33 °F
Dew Point 30 °F
Humidity 88%
Rainfall 0.00 in
Snow Depth Not available.
7:33 AM 4:10 PM
Waxing Crescent, 23% visible
METAR KCKC 041633Z AUTO 13006KT 5SM HZ OVC009 M03/M06 A2990 RMK AO2
Pressure 29.90 in
Visibility 5.0 miles
Clouds Overcast 900 ft
Windchill 33 °F
Dew Point 30 °F
Humidity 88%
Rainfall 0.00 in
Snow Depth Not available.
7:33 AM 4:10 PM
Waxing Crescent, 23% visible
METAR KCKC 041633Z AUTO 13006KT 5SM HZ OVC009 M03/M06 A2990 RMK AO2

10-Day Weather Forecast

Almanac

Astronomy

Dec. 04, 2016 Rise Set
Actual Time
Civil Twilight
Nautical Twilight
Astronomical Twilight
Moon
Length of Visible Light
Length of Day
Tomorrow will be .
, % of the Moon is Illuminated

Today's Extremes

State Highs State Lows

Community

WunderPhotos

Upload Photos

1,955,630 photos uploaded!

WunderBlog® & News

Nearby

Air Quality

  Air Quality AQ Index Pollutant
Not available.

Snow Depth

Station Depth Elevation

Earthquake Activity

City Distance Mag. Time & Date
Minimum magnitude displayed is 2.5.

Coastal Water Temperatures

Place Temperature

Stations

Nearby Weather Stations

Station Location Temp. Windchill Dew Point Humidity Wind Precip. Elev Updated Type
                   

Watches & Warnings

Winter Weather Advisory
Issued: 8:24 AM CST Dec. 4, 2016 – National Weather Service

... Winter Weather Advisory remains in effect until 9 PM CST this
evening...

* locations... Lutsen... Grand Marais... Grand Portage... and along
the higher terrain inland from the North Shore.

* Timing... late this morning through this evening. The greatest
snowfall rates will be in the afternoon through early evening.

* Snow accumulations... 3 to 6 inches.

* Visibility... one-half mile at times... but gusty winds off Lake
Superior combined... with heavier snow bursts... could drop
visibility to one-quarter mile along portions of Highway 61.

* Impacts... the snow could cause travel difficulties.

Precautionary/preparedness actions...

A Winter Weather Advisory for snow means that accumulating snow
will cause travel difficulties. Be prepared for snow covered
roads and reduced visibility... and use caution while driving.
Allow extra time to reach your destination.



G2